sensor_id;sensor_type;location;lat;lon;timestamp;P1;durP1;ratioP1;P2;durP2;ratioP2
17949;SDS011;9100;48.700;9.316;2023-11-18T00:00:11;2.9;;;2.7;;
17949;SDS011;9100;48.700;9.316;2023-11-18T00:01:11;2.9;;;2.7;;
17949;SDS011;9100;48.700;9.316;2023-11-18T00:02:11;2.9;;;2.7;;
17949;SDS011;9100;48.700;9.316;2023-11-18T00:03:11;2.9;;;2.7;;
17949;SDS011;9100;48.700;9.316;2023-11-18T00:04:02;2.6;;;2.5;;
17949;SDS011;9100;48.700;9.316;2023-11-18T00:04:11;2.6;;;2.5;;
17949;SDS011;9100;48.700;9.316;2023-11-18T00:05:11;2.6;;;2.5;;
17949;SDS011;9100;48.700;9.316;2023-11-18T00:06:11;2.6;;;2.5;;
17949;SDS011;9100;48.700;9.316;2023-11-18T00:07:11;2.6;;;2.5;;
17949;SDS011;9100;48.700;9.316;2023-11-18T00:08:11;2.6;;;2.5;;
17949;SDS011;9100;48.700;9.316;2023-11-18T00:09:02;2.9;;;2.7;;
17949;SDS011;9100;48.700;9.316;2023-11-18T00:09:11;2.9;;;2.7;;
17949;SDS011;9100;48.700;9.316;2023-11-18T00:10:11;2.9;;;2.7;;
17949;SDS011;9100;48.700;9.316;2023-11-18T00:11:11;2.9;;;2.7;;
17949;SDS011;9100;48.700;9.316;2023-11-18T00:12:11;2.9;;;2.7;;
17949;SDS011;9100;48.700;9.316;2023-11-18T00:13:11;2.9;;;2.7;;
17949;SDS011;9100;48.700;9.316;2023-11-18T00:14:02;2.7;;;2.6;;
17949;SDS011;9100;48.700;9.316;2023-11-18T00:14:11;2.7;;;2.6;;
17949;SDS011;9100;48.700;9.316;2023-11-18T00:15:11;2.7;;;2.6;;
17949;SDS011;9100;48.700;9.316;2023-11-18T00:16:11;2.7;;;2.6;;
17949;SDS011;9100;48.700;9.316;2023-11-18T00:17:11;2.7;;;2.6;;
17949;SDS011;9100;48.700;9.316;2023-11-18T00:18:11;2.7;;;2.6;;
17949;SDS011;9100;48.700;9.316;2023-11-18T00:19:02;3.1;;;2.8;;
17949;SDS011;9100;48.700;9.316;2023-11-18T00:19:11;3.1;;;2.8;;
17949;SDS011;9100;48.700;9.316;2023-11-18T00:20:11;3.1;;;2.8;;
17949;SDS011;9100;48.700;9.316;2023-11-18T00:21:11;3.1;;;2.8;;
17949;SDS011;9100;48.700;9.316;2023-11-18T00:22:11;3.1;;;2.8;;
17949;SDS011;9100;48.700;9.316;2023-11-18T00:23:11;3.1;;;2.8;;
17949;SDS011;9100;48.700;9.316;2023-11-18T00:24:02;2.8;;;2.7;;
17949;SDS011;9100;48.700;9.316;2023-11-18T00:24:11;2.8;;;2.7;;
17949;SDS011;9100;48.700;9.316;2023-11-18T00:25:11;2.8;;;2.7;;
17949;SDS011;9100;48.700;9.316;2023-11-18T00:26:11;2.8;;;2.7;;
17949;SDS011;9100;48.700;9.316;2023-11-18T00:27:11;2.8;;;2.7;;
17949;SDS011;9100;48.700;9.316;2023-11-18T00:28:11;2.8;;;2.7;;
17949;SDS011;9100;48.700;9.316;2023-11-18T00:29:02;3.4;;;3.1;;
17949;SDS011;9100;48.700;9.316;2023-11-18T00:29:11;3.4;;;3.1;;
17949;SDS011;9100;48.700;9.316;2023-11-18T00:30:11;3.4;;;3.1;;
17949;SDS011;9100;48.700;9.316;2023-11-18T00:31:11;3.4;;;3.1;;
17949;SDS011;9100;48.700;9.316;2023-11-18T00:32:11;3.4;;;3.1;;
17949;SDS011;9100;48.700;9.316;2023-11-18T00:33:11;3.4;;;3.1;;
17949;SDS011;9100;48.700;9.316;2023-11-18T00:34:02;2.9;;;2.7;;
17949;SDS011;9100;48.700;9.316;2023-11-18T00:34:11;2.9;;;2.7;;
17949;SDS011;9100;48.700;9.316;2023-11-18T00:35:11;2.9;;;2.7;;
17949;SDS011;9100;48.700;9.316;2023-11-18T00:36:11;2.9;;;2.7;;
17949;SDS011;9100;48.700;9.316;2023-11-18T00:37:11;2.9;;;2.7;;
17949;SDS011;9100;48.700;9.316;2023-11-18T00:38:11;2.9;;;2.7;;
17949;SDS011;9100;48.700;9.316;2023-11-18T00:39:02;3;;;2.8;;
17949;SDS011;9100;48.700;9.316;2023-11-18T00:39:11;3;;;2.8;;
17949;SDS011;9100;48.700;9.316;2023-11-18T00:40:11;3;;;2.8;;
17949;SDS011;9100;48.700;9.316;2023-11-18T00:41:11;3;;;2.8;;
17949;SDS011;9100;48.700;9.316;2023-11-18T00:42:11;3;;;2.8;;
17949;SDS011;9100;48.700;9.316;2023-11-18T00:43:11;3;;;2.8;;
17949;SDS011;9100;48.700;9.316;2023-11-18T00:44:02;3.3;;;3.1;;
17949;SDS011;9100;48.700;9.316;2023-11-18T00:44:11;3.3;;;3.1;;
17949;SDS011;9100;48.700;9.316;2023-11-18T00:45:11;3.3;;;3.1;;
17949;SDS011;9100;48.700;9.316;2023-11-18T00:46:11;3.3;;;3.1;;
17949;SDS011;9100;48.700;9.316;2023-11-18T00:47:11;3.3;;;3.1;;
17949;SDS011;9100;48.700;9.316;2023-11-18T00:48:11;3.3;;;3.1;;
17949;SDS011;9100;48.700;9.316;2023-11-18T00:49:02;3;;;2.8;;
17949;SDS011;9100;48.700;9.316;2023-11-18T00:49:11;3;;;2.8;;
17949;SDS011;9100;48.700;9.316;2023-11-18T00:50:11;3;;;2.8;;
17949;SDS011;9100;48.700;9.316;2023-11-18T00:51:11;3;;;2.8;;
17949;SDS011;9100;48.700;9.316;2023-11-18T00:52:11;3;;;2.8;;
17949;SDS011;9100;48.700;9.316;2023-11-18T00:53:11;3;;;2.8;;
17949;SDS011;9100;48.700;9.316;2023-11-18T00:54:02;4.6;;;3.2;;
17949;SDS011;9100;48.700;9.316;2023-11-18T00:54:11;4.6;;;3.2;;
17949;SDS011;9100;48.700;9.316;2023-11-18T00:55:11;4.6;;;3.2;;
17949;SDS011;9100;48.700;9.316;2023-11-18T00:56:13;4.6;;;3.2;;
17949;SDS011;9100;48.700;9.316;2023-11-18T00:57:11;4.6;;;3.2;;
17949;SDS011;9100;48.700;9.316;2023-11-18T00:58:11;4.6;;;3.2;;
17949;SDS011;9100;48.700;9.316;2023-11-18T00:59:02;3;;;2.8;;
17949;SDS011;9100;48.700;9.316;2023-11-18T00:59:11;3;;;2.8;;
17949;SDS011;9100;48.700;9.316;2023-11-18T01:00:11;3;;;2.8;;
17949;SDS011;9100;48.700;9.316;2023-11-18T01:01:11;3;;;2.8;;
17949;SDS011;9100;48.700;9.316;2023-11-18T01:02:11;3;;;2.8;;
17949;SDS011;9100;48.700;9.316;2023-11-18T01:03:11;3;;;2.8;;
17949;SDS011;9100;48.700;9.316;2023-11-18T01:04:02;3.8;;;3.1;;
17949;SDS011;9100;48.700;9.316;2023-11-18T01:04:11;3.8;;;3.1;;
17949;SDS011;9100;48.700;9.316;2023-11-18T01:05:11;3.8;;;3.1;;
17949;SDS011;9100;48.700;9.316;2023-11-18T01:06:11;3.8;;;3.1;;
17949;SDS011;9100;48.700;9.316;2023-11-18T01:07:11;3.8;;;3.1;;
17949;SDS011;9100;48.700;9.316;2023-11-18T01:08:11;3.8;;;3.1;;
17949;SDS011;9100;48.700;9.316;2023-11-18T01:09:02;3.7;;;3.4;;
17949;SDS011;9100;48.700;9.316;2023-11-18T01:09:11;3.7;;;3.4;;
17949;SDS011;9100;48.700;9.316;2023-11-18T01:10:11;3.7;;;3.4;;
17949;SDS011;9100;48.700;9.316;2023-11-18T01:11:15;3.7;;;3.4;;
17949;SDS011;9100;48.700;9.316;2023-11-18T01:12:11;3.7;;;3.4;;
17949;SDS011;9100;48.700;9.316;2023-11-18T01:13:11;3.7;;;3.4;;
17949;SDS011;9100;48.700;9.316;2023-11-18T01:14:02;3.2;;;3;;
17949;SDS011;9100;48.700;9.316;2023-11-18T01:14:11;3.2;;;3;;
17949;SDS011;9100;48.700;9.316;2023-11-18T01:15:11;3.2;;;3;;
17949;SDS011;9100;48.700;9.316;2023-11-18T01:16:11;3.2;;;3;;
17949;SDS011;9100;48.700;9.316;2023-11-18T01:17:11;3.2;;;3;;
17949;SDS011;9100;48.700;9.316;2023-11-18T01:18:11;3.2;;;3;;
17949;SDS011;9100;48.700;9.316;2023-11-18T01:19:02;3.4;;;3;;
17949;SDS011;9100;48.700;9.316;2023-11-18T01:19:11;3.4;;;3;;
17949;SDS011;9100;48.700;9.316;2023-11-18T01:20:11;3.4;;;3;;
17949;SDS011;9100;48.700;9.316;2023-11-18T01:21:11;3.4;;;3;;
17949;SDS011;9100;48.700;9.316;2023-11-18T01:22:11;3.4;;;3;;
17949;SDS011;9100;48.700;9.316;2023-11-18T01:23:11;3.4;;;3;;
17949;SDS011;9100;48.700;9.316;2023-11-18T01:24:02;3;;;2.8;;
17949;SDS011;9100;48.700;9.316;2023-11-18T01:24:11;3;;;2.8;;
17949;SDS011;9100;48.700;9.316;2023-11-18T01:25:11;3;;;2.8;;
17949;SDS011;9100;48.700;9.316;2023-11-18T01:26:11;3;;;2.8;;
17949;SDS011;9100;48.700;9.316;2023-11-18T01:27:11;3;;;2.8;;
17949;SDS011;9100;48.700;9.316;2023-11-18T01:28:11;3;;;2.8;;
17949;SDS011;9100;48.700;9.316;2023-11-18T01:29:02;2.9;;;2.8;;
17949;SDS011;9100;48.700;9.316;2023-11-18T01:29:11;2.9;;;2.8;;
17949;SDS011;9100;48.700;9.316;2023-11-18T01:30:11;2.9;;;2.8;;
17949;SDS011;9100;48.700;9.316;2023-11-18T01:31:11;2.9;;;2.8;;
17949;SDS011;9100;48.700;9.316;2023-11-18T01:32:11;2.9;;;2.8;;
17949;SDS011;9100;48.700;9.316;2023-11-18T01:33:11;2.9;;;2.8;;
17949;SDS011;9100;48.700;9.316;2023-11-18T01:34:02;4.3;;;3.2;;
17949;SDS011;9100;48.700;9.316;2023-11-18T01:34:11;4.3;;;3.2;;
17949;SDS011;9100;48.700;9.316;2023-11-18T01:35:11;4.3;;;3.2;;
17949;SDS011;9100;48.700;9.316;2023-11-18T01:36:11;4.3;;;3.2;;
17949;SDS011;9100;48.700;9.316;2023-11-18T01:37:11;4.3;;;3.2;;
17949;SDS011;9100;48.700;9.316;2023-11-18T01:38:11;4.3;;;3.2;;
17949;SDS011;9100;48.700;9.316;2023-11-18T01:39:02;3.5;;;3.2;;
17949;SDS011;9100;48.700;9.316;2023-11-18T01:39:11;3.5;;;3.2;;
17949;SDS011;9100;48.700;9.316;2023-11-18T01:40:11;3.5;;;3.2;;
17949;SDS011;9100;48.700;9.316;2023-11-18T01:41:11;3.5;;;3.2;;
17949;SDS011;9100;48.700;9.316;2023-11-18T01:42:11;3.5;;;3.2;;
17949;SDS011;9100;48.700;9.316;2023-11-18T01:43:11;3.5;;;3.2;;
17949;SDS011;9100;48.700;9.316;2023-11-18T01:44:02;3.4;;;3.1;;
17949;SDS011;9100;48.700;9.316;2023-11-18T01:44:11;3.4;;;3.1;;
17949;SDS011;9100;48.700;9.316;2023-11-18T01:45:11;3.4;;;3.1;;
17949;SDS011;9100;48.700;9.316;2023-11-18T01:46:11;3.4;;;3.1;;
17949;SDS011;9100;48.700;9.316;2023-11-18T01:47:11;3.4;;;3.1;;
17949;SDS011;9100;48.700;9.316;2023-11-18T01:48:11;3.4;;;3.1;;
17949;SDS011;9100;48.700;9.316;2023-11-18T01:49:02;2.9;;;2.7;;
17949;SDS011;9100;48.700;9.316;2023-11-18T01:49:11;2.9;;;2.7;;
17949;SDS011;9100;48.700;9.316;2023-11-18T01:50:11;2.9;;;2.7;;
17949;SDS011;9100;48.700;9.316;2023-11-18T01:51:11;2.9;;;2.7;;
17949;SDS011;9100;48.700;9.316;2023-11-18T01:52:11;2.9;;;2.7;;
17949;SDS011;9100;48.700;9.316;2023-11-18T01:53:11;2.9;;;2.7;;
17949;SDS011;9100;48.700;9.316;2023-11-18T01:54:02;3.5;;;3.2;;
17949;SDS011;9100;48.700;9.316;2023-11-18T01:54:11;3.5;;;3.2;;
17949;SDS011;9100;48.700;9.316;2023-11-18T01:55:11;3.5;;;3.2;;
17949;SDS011;9100;48.700;9.316;2023-11-18T01:56:11;3.5;;;3.2;;
17949;SDS011;9100;48.700;9.316;2023-11-18T01:57:11;3.5;;;3.2;;
17949;SDS011;9100;48.700;9.316;2023-11-18T01:58:11;3.5;;;3.2;;
17949;SDS011;9100;48.700;9.316;2023-11-18T01:59:02;3.3;;;3.1;;
17949;SDS011;9100;48.700;9.316;2023-11-18T01:59:11;3.3;;;3.1;;
17949;SDS011;9100;48.700;9.316;2023-11-18T02:00:11;3.3;;;3.1;;
17949;SDS011;9100;48.700;9.316;2023-11-18T02:01:11;3.3;;;3.1;;
17949;SDS011;9100;48.700;9.316;2023-11-18T02:02:11;3.3;;;3.1;;
17949;SDS011;9100;48.700;9.316;2023-11-18T02:03:11;3.3;;;3.1;;
17949;SDS011;9100;48.700;9.316;2023-11-18T02:04:02;3.1;;;2.9;;
17949;SDS011;9100;48.700;9.316;2023-11-18T02:04:11;3.1;;;2.9;;
17949;SDS011;9100;48.700;9.316;2023-11-18T02:05:11;3.1;;;2.9;;
17949;SDS011;9100;48.700;9.316;2023-11-18T02:06:11;3.1;;;2.9;;
17949;SDS011;9100;48.700;9.316;2023-11-18T02:07:11;3.1;;;2.9;;
17949;SDS011;9100;48.700;9.316;2023-11-18T02:08:11;3.1;;;2.9;;
17949;SDS011;9100;48.700;9.316;2023-11-18T02:09:02;2.7;;;2.5;;
17949;SDS011;9100;48.700;9.316;2023-11-18T02:09:11;2.7;;;2.5;;
17949;SDS011;9100;48.700;9.316;2023-11-18T02:10:12;2.7;;;2.5;;
17949;SDS011;9100;48.700;9.316;2023-11-18T02:11:14;2.7;;;2.5;;
17949;SDS011;9100;48.700;9.316;2023-11-18T02:12:15;2.7;;;2.5;;
17949;SDS011;9100;48.700;9.316;2023-11-18T02:13:13;2.7;;;2.5;;
17949;SDS011;9100;48.700;9.316;2023-11-18T02:14:02;3.4;;;2.6;;
17949;SDS011;9100;48.700;9.316;2023-11-18T02:14:13;3.4;;;2.6;;
17949;SDS011;9100;48.700;9.316;2023-11-18T02:15:11;3.4;;;2.6;;
17949;SDS011;9100;48.700;9.316;2023-11-18T02:16:11;3.4;;;2.6;;
17949;SDS011;9100;48.700;9.316;2023-11-18T02:17:12;3.4;;;2.6;;
17949;SDS011;9100;48.700;9.316;2023-11-18T02:18:11;3.4;;;2.6;;
17949;SDS011;9100;48.700;9.316;2023-11-18T02:19:02;2.4;;;2.3;;
17949;SDS011;9100;48.700;9.316;2023-11-18T02:19:16;2.4;;;2.3;;
17949;SDS011;9100;48.700;9.316;2023-11-18T02:20:11;2.4;;;2.3;;
17949;SDS011;9100;48.700;9.316;2023-11-18T02:21:11;2.4;;;2.3;;
17949;SDS011;9100;48.700;9.316;2023-11-18T02:22:11;2.4;;;2.3;;
17949;SDS011;9100;48.700;9.316;2023-11-18T02:23:11;2.4;;;2.3;;
17949;SDS011;9100;48.700;9.316;2023-11-18T02:24:02;2.9;;;2.7;;
17949;SDS011;9100;48.700;9.316;2023-11-18T02:24:11;2.9;;;2.7;;
17949;SDS011;9100;48.700;9.316;2023-11-18T02:25:12;2.9;;;2.7;;
17949;SDS011;9100;48.700;9.316;2023-11-18T02:26:11;2.9;;;2.7;;
17949;SDS011;9100;48.700;9.316;2023-11-18T02:27:11;2.9;;;2.7;;
17949;SDS011;9100;48.700;9.316;2023-11-18T02:28:11;2.9;;;2.7;;
17949;SDS011;9100;48.700;9.316;2023-11-18T02:29:02;2.7;;;2.6;;
17949;SDS011;9100;48.700;9.316;2023-11-18T02:29:11;2.7;;;2.6;;
17949;SDS011;9100;48.700;9.316;2023-11-18T02:30:11;2.7;;;2.6;;
17949;SDS011;9100;48.700;9.316;2023-11-18T02:31:13;2.7;;;2.6;;
17949;SDS011;9100;48.700;9.316;2023-11-18T02:32:13;2.7;;;2.6;;
17949;SDS011;9100;48.700;9.316;2023-11-18T02:33:13;2.7;;;2.6;;
17949;SDS011;9100;48.700;9.316;2023-11-18T02:34:04;2.6;;;2.5;;
17949;SDS011;9100;48.700;9.316;2023-11-18T02:34:12;2.6;;;2.5;;
17949;SDS011;9100;48.700;9.316;2023-11-18T02:35:13;2.6;;;2.5;;
17949;SDS011;9100;48.700;9.316;2023-11-18T02:36:13;2.6;;;2.5;;
17949;SDS011;9100;48.700;9.316;2023-11-18T02:37:11;2.6;;;2.5;;
17949;SDS011;9100;48.700;9.316;2023-11-18T02:38:11;2.6;;;2.5;;
17949;SDS011;9100;48.700;9.316;2023-11-18T02:39:03;2.4;;;2.3;;
17949;SDS011;9100;48.700;9.316;2023-11-18T02:39:12;2.4;;;2.3;;
17949;SDS011;9100;48.700;9.316;2023-11-18T02:40:12;2.4;;;2.3;;
17949;SDS011;9100;48.700;9.316;2023-11-18T02:41:11;2.4;;;2.3;;
17949;SDS011;9100;48.700;9.316;2023-11-18T02:42:12;2.4;;;2.3;;
17949;SDS011;9100;48.700;9.316;2023-11-18T02:43:11;2.4;;;2.3;;
17949;SDS011;9100;48.700;9.316;2023-11-18T02:44:02;2.6;;;2.5;;
17949;SDS011;9100;48.700;9.316;2023-11-18T02:44:11;2.6;;;2.5;;
17949;SDS011;9100;48.700;9.316;2023-11-18T02:45:12;2.6;;;2.5;;
17949;SDS011;9100;48.700;9.316;2023-11-18T02:46:11;2.6;;;2.5;;
17949;SDS011;9100;48.700;9.316;2023-11-18T02:47:11;2.6;;;2.5;;
17949;SDS011;9100;48.700;9.316;2023-11-18T02:48:11;2.6;;;2.5;;
17949;SDS011;9100;48.700;9.316;2023-11-18T02:49:02;3;;;2.7;;
17949;SDS011;9100;48.700;9.316;2023-11-18T02:49:11;3;;;2.7;;
17949;SDS011;9100;48.700;9.316;2023-11-18T02:50:11;3;;;2.7;;
17949;SDS011;9100;48.700;9.316;2023-11-18T02:51:11;3;;;2.7;;
17949;SDS011;9100;48.700;9.316;2023-11-18T02:52:11;3;;;2.7;;
17949;SDS011;9100;48.700;9.316;2023-11-18T02:53:11;3;;;2.7;;
17949;SDS011;9100;48.700;9.316;2023-11-18T02:54:02;2.7;;;2.5;;
17949;SDS011;9100;48.700;9.316;2023-11-18T02:54:11;2.7;;;2.5;;
17949;SDS011;9100;48.700;9.316;2023-11-18T02:55:11;2.7;;;2.5;;
17949;SDS011;9100;48.700;9.316;2023-11-18T02:56:11;2.7;;;2.5;;
17949;SDS011;9100;48.700;9.316;2023-11-18T02:57:11;2.7;;;2.5;;
17949;SDS011;9100;48.700;9.316;2023-11-18T02:58:11;2.7;;;2.5;;
17949;SDS011;9100;48.700;9.316;2023-11-18T02:59:02;2.3;;;2.2;;
17949;SDS011;9100;48.700;9.316;2023-11-18T02:59:11;2.3;;;2.2;;
17949;SDS011;9100;48.700;9.316;2023-11-18T03:00:11;2.3;;;2.2;;
17949;SDS011;9100;48.700;9.316;2023-11-18T03:01:11;2.3;;;2.2;;
17949;SDS011;9100;48.700;9.316;2023-11-18T03:02:11;2.3;;;2.2;;
17949;SDS011;9100;48.700;9.316;2023-11-18T03:03:11;2.3;;;2.2;;
17949;SDS011;9100;48.700;9.316;2023-11-18T03:04:02;2.1;;;2;;
17949;SDS011;9100;48.700;9.316;2023-11-18T03:04:11;2.1;;;2;;
17949;SDS011;9100;48.700;9.316;2023-11-18T03:05:11;2.1;;;2;;
17949;SDS011;9100;48.700;9.316;2023-11-18T03:06:11;2.1;;;2;;
17949;SDS011;9100;48.700;9.316;2023-11-18T03:07:11;2.1;;;2;;
17949;SDS011;9100;48.700;9.316;2023-11-18T03:08:11;2.1;;;2;;
17949;SDS011;9100;48.700;9.316;2023-11-18T03:09:02;2.2;;;2.1;;
17949;SDS011;9100;48.700;9.316;2023-11-18T03:09:11;2.2;;;2.1;;
17949;SDS011;9100;48.700;9.316;2023-11-18T03:10:11;2.2;;;2.1;;
17949;SDS011;9100;48.700;9.316;2023-11-18T03:11:11;2.2;;;2.1;;
17949;SDS011;9100;48.700;9.316;2023-11-18T03:12:11;2.2;;;2.1;;
17949;SDS011;9100;48.700;9.316;2023-11-18T03:13:11;2.2;;;2.1;;
17949;SDS011;9100;48.700;9.316;2023-11-18T03:14:02;2.6;;;2.5;;
17949;SDS011;9100;48.700;9.316;2023-11-18T03:14:11;2.6;;;2.5;;
17949;SDS011;9100;48.700;9.316;2023-11-18T03:15:11;2.6;;;2.5;;
17949;SDS011;9100;48.700;9.316;2023-11-18T03:16:11;2.6;;;2.5;;
17949;SDS011;9100;48.700;9.316;2023-11-18T03:17:11;2.6;;;2.5;;
17949;SDS011;9100;48.700;9.316;2023-11-18T03:18:11;2.6;;;2.5;;
17949;SDS011;9100;48.700;9.316;2023-11-18T03:19:02;3.3;;;3.1;;
17949;SDS011;9100;48.700;9.316;2023-11-18T03:19:11;3.3;;;3.1;;
17949;SDS011;9100;48.700;9.316;2023-11-18T03:20:11;3.3;;;3.1;;
17949;SDS011;9100;48.700;9.316;2023-11-18T03:21:11;3.3;;;3.1;;
17949;SDS011;9100;48.700;9.316;2023-11-18T03:22:11;3.3;;;3.1;;
17949;SDS011;9100;48.700;9.316;2023-11-18T03:23:11;3.3;;;3.1;;
17949;SDS011;9100;48.700;9.316;2023-11-18T03:24:02;3;;;2.8;;
17949;SDS011;9100;48.700;9.316;2023-11-18T03:24:11;3;;;2.8;;
17949;SDS011;9100;48.700;9.316;2023-11-18T03:25:11;3;;;2.8;;
17949;SDS011;9100;48.700;9.316;2023-11-18T03:26:11;3;;;2.8;;
17949;SDS011;9100;48.700;9.316;2023-11-18T03:27:11;3;;;2.8;;
17949;SDS011;9100;48.700;9.316;2023-11-18T03:28:11;3;;;2.8;;
17949;SDS011;9100;48.700;9.316;2023-11-18T03:29:02;3.5;;;3.3;;
17949;SDS011;9100;48.700;9.316;2023-11-18T03:29:11;3.5;;;3.3;;
17949;SDS011;9100;48.700;9.316;2023-11-18T03:30:11;3.5;;;3.3;;
17949;SDS011;9100;48.700;9.316;2023-11-18T03:31:11;3.5;;;3.3;;
17949;SDS011;9100;48.700;9.316;2023-11-18T03:32:11;3.5;;;3.3;;
17949;SDS011;9100;48.700;9.316;2023-11-18T03:33:11;3.5;;;3.3;;
17949;SDS011;9100;48.700;9.316;2023-11-18T03:34:02;4.2;;;3.1;;
17949;SDS011;9100;48.700;9.316;2023-11-18T03:34:11;4.2;;;3.1;;
17949;SDS011;9100;48.700;9.316;2023-11-18T03:35:11;4.2;;;3.1;;
17949;SDS011;9100;48.700;9.316;2023-11-18T03:36:11;4.2;;;3.1;;
17949;SDS011;9100;48.700;9.316;2023-11-18T03:37:11;4.2;;;3.1;;
17949;SDS011;9100;48.700;9.316;2023-11-18T03:38:11;4.2;;;3.1;;
17949;SDS011;9100;48.700;9.316;2023-11-18T03:39:02;3.1;;;2.9;;
17949;SDS011;9100;48.700;9.316;2023-11-18T03:39:11;3.1;;;2.9;;
17949;SDS011;9100;48.700;9.316;2023-11-18T03:40:12;3.1;;;2.9;;
17949;SDS011;9100;48.700;9.316;2023-11-18T03:41:11;3.1;;;2.9;;
17949;SDS011;9100;48.700;9.316;2023-11-18T03:42:11;3.1;;;2.9;;
17949;SDS011;9100;48.700;9.316;2023-11-18T03:43:11;3.1;;;2.9;;
17949;SDS011;9100;48.700;9.316;2023-11-18T03:44:02;2.8;;;2.6;;
17949;SDS011;9100;48.700;9.316;2023-11-18T03:44:11;2.8;;;2.6;;
17949;SDS011;9100;48.700;9.316;2023-11-18T03:45:11;2.8;;;2.6;;
17949;SDS011;9100;48.700;9.316;2023-11-18T03:46:11;2.8;;;2.6;;
17949;SDS011;9100;48.700;9.316;2023-11-18T03:47:11;2.8;;;2.6;;
17949;SDS011;9100;48.700;9.316;2023-11-18T03:48:11;2.8;;;2.6;;
17949;SDS011;9100;48.700;9.316;2023-11-18T03:49:02;10.5;;;2.9;;
17949;SDS011;9100;48.700;9.316;2023-11-18T03:49:11;10.5;;;2.9;;
17949;SDS011;9100;48.700;9.316;2023-11-18T03:50:11;10.5;;;2.9;;
17949;SDS011;9100;48.700;9.316;2023-11-18T03:51:11;10.5;;;2.9;;
17949;SDS011;9100;48.700;9.316;2023-11-18T03:52:11;10.5;;;2.9;;
17949;SDS011;9100;48.700;9.316;2023-11-18T03:53:11;10.5;;;2.9;;
17949;SDS011;9100;48.700;9.316;2023-11-18T03:54:02;2.8;;;2.6;;
17949;SDS011;9100;48.700;9.316;2023-11-18T03:54:11;2.8;;;2.6;;
17949;SDS011;9100;48.700;9.316;2023-11-18T03:55:11;2.8;;;2.6;;
17949;SDS011;9100;48.700;9.316;2023-11-18T03:56:16;2.8;;;2.6;;
17949;SDS011;9100;48.700;9.316;2023-11-18T03:57:11;2.8;;;2.6;;
17949;SDS011;9100;48.700;9.316;2023-11-18T03:58:11;2.8;;;2.6;;
17949;SDS011;9100;48.700;9.316;2023-11-18T03:59:02;2.7;;;2.6;;
17949;SDS011;9100;48.700;9.316;2023-11-18T03:59:11;2.7;;;2.6;;
17949;SDS011;9100;48.700;9.316;2023-11-18T04:00:11;2.7;;;2.6;;
17949;SDS011;9100;48.700;9.316;2023-11-18T04:01:11;2.7;;;2.6;;
17949;SDS011;9100;48.700;9.316;2023-11-18T04:02:11;2.7;;;2.6;;
17949;SDS011;9100;48.700;9.316;2023-11-18T04:03:11;2.7;;;2.6;;
17949;SDS011;9100;48.700;9.316;2023-11-18T04:04:02;2.9;;;2.7;;
17949;SDS011;9100;48.700;9.316;2023-11-18T04:04:11;2.9;;;2.7;;
17949;SDS011;9100;48.700;9.316;2023-11-18T04:05:12;2.9;;;2.7;;
17949;SDS011;9100;48.700;9.316;2023-11-18T04:06:11;2.9;;;2.7;;
17949;SDS011;9100;48.700;9.316;2023-11-18T04:07:11;2.9;;;2.7;;
17949;SDS011;9100;48.700;9.316;2023-11-18T04:08:11;2.9;;;2.7;;
17949;SDS011;9100;48.700;9.316;2023-11-18T04:09:02;3;;;2.8;;
17949;SDS011;9100;48.700;9.316;2023-11-18T04:09:11;3;;;2.8;;
17949;SDS011;9100;48.700;9.316;2023-11-18T04:10:11;3;;;2.8;;
17949;SDS011;9100;48.700;9.316;2023-11-18T04:11:11;3;;;2.8;;
17949;SDS011;9100;48.700;9.316;2023-11-18T04:12:11;3;;;2.8;;
17949;SDS011;9100;48.700;9.316;2023-11-18T04:13:11;3;;;2.8;;
17949;SDS011;9100;48.700;9.316;2023-11-18T04:14:02;2.7;;;2.5;;
17949;SDS011;9100;48.700;9.316;2023-11-18T04:14:11;2.7;;;2.5;;
17949;SDS011;9100;48.700;9.316;2023-11-18T04:15:11;2.7;;;2.5;;
17949;SDS011;9100;48.700;9.316;2023-11-18T04:16:11;2.7;;;2.5;;
17949;SDS011;9100;48.700;9.316;2023-11-18T04:17:11;2.7;;;2.5;;
17949;SDS011;9100;48.700;9.316;2023-11-18T04:18:11;2.7;;;2.5;;
17949;SDS011;9100;48.700;9.316;2023-11-18T04:19:02;2.9;;;2.7;;
17949;SDS011;9100;48.700;9.316;2023-11-18T04:19:11;2.9;;;2.7;;
17949;SDS011;9100;48.700;9.316;2023-11-18T04:20:11;2.9;;;2.7;;
17949;SDS011;9100;48.700;9.316;2023-11-18T04:21:11;2.9;;;2.7;;
17949;SDS011;9100;48.700;9.316;2023-11-18T04:22:11;2.9;;;2.7;;
17949;SDS011;9100;48.700;9.316;2023-11-18T04:23:11;2.9;;;2.7;;
17949;SDS011;9100;48.700;9.316;2023-11-18T04:24:02;2.7;;;2.5;;
17949;SDS011;9100;48.700;9.316;2023-11-18T04:24:11;2.7;;;2.5;;
17949;SDS011;9100;48.700;9.316;2023-11-18T04:25:11;2.7;;;2.5;;
17949;SDS011;9100;48.700;9.316;2023-11-18T04:26:11;2.7;;;2.5;;
17949;SDS011;9100;48.700;9.316;2023-11-18T04:27:11;2.7;;;2.5;;
17949;SDS011;9100;48.700;9.316;2023-11-18T04:28:11;2.7;;;2.5;;
17949;SDS011;9100;48.700;9.316;2023-11-18T04:29:02;2.5;;;2.4;;
17949;SDS011;9100;48.700;9.316;2023-11-18T04:29:11;2.5;;;2.4;;
17949;SDS011;9100;48.700;9.316;2023-11-18T04:30:11;2.5;;;2.4;;
17949;SDS011;9100;48.700;9.316;2023-11-18T04:31:11;2.5;;;2.4;;
17949;SDS011;9100;48.700;9.316;2023-11-18T04:32:11;2.5;;;2.4;;
17949;SDS011;9100;48.700;9.316;2023-11-18T04:33:11;2.5;;;2.4;;
17949;SDS011;9100;48.700;9.316;2023-11-18T04:34:02;2.3;;;2.2;;
17949;SDS011;9100;48.700;9.316;2023-11-18T04:34:11;2.3;;;2.2;;
17949;SDS011;9100;48.700;9.316;2023-11-18T04:35:11;2.3;;;2.2;;
17949;SDS011;9100;48.700;9.316;2023-11-18T04:36:11;2.3;;;2.2;;
17949;SDS011;9100;48.700;9.316;2023-11-18T04:37:11;2.3;;;2.2;;
17949;SDS011;9100;48.700;9.316;2023-11-18T04:38:11;2.3;;;2.2;;
17949;SDS011;9100;48.700;9.316;2023-11-18T04:39:02;2.7;;;2.5;;
17949;SDS011;9100;48.700;9.316;2023-11-18T04:39:11;2.7;;;2.5;;
17949;SDS011;9100;48.700;9.316;2023-11-18T04:40:11;2.7;;;2.5;;
17949;SDS011;9100;48.700;9.316;2023-11-18T04:41:11;2.7;;;2.5;;
17949;SDS011;9100;48.700;9.316;2023-11-18T04:42:11;2.7;;;2.5;;
17949;SDS011;9100;48.700;9.316;2023-11-18T04:43:11;2.7;;;2.5;;
17949;SDS011;9100;48.700;9.316;2023-11-18T04:44:02;2.3;;;2.2;;
17949;SDS011;9100;48.700;9.316;2023-11-18T04:44:11;2.3;;;2.2;;
17949;SDS011;9100;48.700;9.316;2023-11-18T04:45:12;2.3;;;2.2;;
17949;SDS011;9100;48.700;9.316;2023-11-18T04:46:11;2.3;;;2.2;;
17949;SDS011;9100;48.700;9.316;2023-11-18T04:47:11;2.3;;;2.2;;
17949;SDS011;9100;48.700;9.316;2023-11-18T04:48:11;2.3;;;2.2;;
17949;SDS011;9100;48.700;9.316;2023-11-18T04:49:02;2.5;;;2.3;;
17949;SDS011;9100;48.700;9.316;2023-11-18T04:49:11;2.5;;;2.3;;
17949;SDS011;9100;48.700;9.316;2023-11-18T04:50:11;2.5;;;2.3;;
17949;SDS011;9100;48.700;9.316;2023-11-18T04:51:11;2.5;;;2.3;;
17949;SDS011;9100;48.700;9.316;2023-11-18T04:52:11;2.5;;;2.3;;
17949;SDS011;9100;48.700;9.316;2023-11-18T04:53:11;2.5;;;2.3;;
17949;SDS011;9100;48.700;9.316;2023-11-18T04:54:02;4;;;2.4;;
17949;SDS011;9100;48.700;9.316;2023-11-18T04:54:11;4;;;2.4;;
17949;SDS011;9100;48.700;9.316;2023-11-18T04:55:11;4;;;2.4;;
17949;SDS011;9100;48.700;9.316;2023-11-18T04:56:11;4;;;2.4;;
17949;SDS011;9100;48.700;9.316;2023-11-18T04:57:11;4;;;2.4;;
17949;SDS011;9100;48.700;9.316;2023-11-18T04:58:11;4;;;2.4;;
17949;SDS011;9100;48.700;9.316;2023-11-18T04:59:02;2.3;;;2.2;;
17949;SDS011;9100;48.700;9.316;2023-11-18T04:59:11;2.3;;;2.2;;
17949;SDS011;9100;48.700;9.316;2023-11-18T05:00:11;2.3;;;2.2;;
17949;SDS011;9100;48.700;9.316;2023-11-18T05:01:11;2.3;;;2.2;;
17949;SDS011;9100;48.700;9.316;2023-11-18T05:02:11;2.3;;;2.2;;
17949;SDS011;9100;48.700;9.316;2023-11-18T05:03:11;2.3;;;2.2;;
17949;SDS011;9100;48.700;9.316;2023-11-18T05:04:02;2.1;;;2;;
17949;SDS011;9100;48.700;9.316;2023-11-18T05:04:11;2.1;;;2;;
17949;SDS011;9100;48.700;9.316;2023-11-18T05:05:11;2.1;;;2;;
17949;SDS011;9100;48.700;9.316;2023-11-18T05:06:11;2.1;;;2;;
17949;SDS011;9100;48.700;9.316;2023-11-18T05:07:11;2.1;;;2;;
17949;SDS011;9100;48.700;9.316;2023-11-18T05:08:17;2.1;;;2;;
17949;SDS011;9100;48.700;9.316;2023-11-18T05:09:02;2.5;;;2.3;;
17949;SDS011;9100;48.700;9.316;2023-11-18T05:09:11;2.5;;;2.3;;
17949;SDS011;9100;48.700;9.316;2023-11-18T05:10:11;2.5;;;2.3;;
17949;SDS011;9100;48.700;9.316;2023-11-18T05:11:11;2.5;;;2.3;;
17949;SDS011;9100;48.700;9.316;2023-11-18T05:12:11;2.5;;;2.3;;
17949;SDS011;9100;48.700;9.316;2023-11-18T05:13:11;2.5;;;2.3;;
17949;SDS011;9100;48.700;9.316;2023-11-18T05:14:02;2.2;;;2.1;;
17949;SDS011;9100;48.700;9.316;2023-11-18T05:14:11;2.2;;;2.1;;
17949;SDS011;9100;48.700;9.316;2023-11-18T05:15:11;2.2;;;2.1;;
17949;SDS011;9100;48.700;9.316;2023-11-18T05:16:11;2.2;;;2.1;;
17949;SDS011;9100;48.700;9.316;2023-11-18T05:17:11;2.2;;;2.1;;